sensor_id;sensor_type;location;lat;lon;timestamp;pressure;altitude;pressure_sealevel;temperature;humidity
72262;BME280;60173;52.112;8.648;2023-05-28T00:01:37;101138.97;;;9.33;93.72
72262;BME280;60173;52.112;8.648;2023-05-28T00:04:03;101144.66;;;9.37;93.97
72262;BME280;60173;52.112;8.648;2023-05-28T00:06:30;101136.78;;;9.45;93.37
72262;BME280;60173;52.112;8.648;2023-05-28T00:08:56;101140.25;;;9.71;91.89
72262;BME280;60173;52.112;8.648;2023-05-28T00:11:22;101131.53;;;9.74;90.88
72262;BME280;60173;52.112;8.648;2023-05-28T00:13:49;101137.81;;;9.60;91.24
72262;BME280;60173;52.112;8.648;2023-05-28T00:16:15;101133.00;;;9.36;91.77
72262;BME280;60173;52.112;8.648;2023-05-28T00:18:42;101133.00;;;9.41;93.03
72262;BME280;60173;52.112;8.648;2023-05-28T00:21:08;101131.84;;;9.63;91.88
72262;BME280;60173;52.112;8.648;2023-05-28T00:23:34;101136.72;;;9.76;91.30
72262;BME280;60173;52.112;8.648;2023-05-28T00:26:01;101141.63;;;9.59;90.92
72262;BME280;60173;52.112;8.648;2023-05-28T00:28:27;101134.59;;;9.47;91.86
72262;BME280;60173;52.112;8.648;2023-05-28T00:30:54;101139.19;;;9.57;92.13
72262;BME280;60173;52.112;8.648;2023-05-28T00:33:20;101141.63;;;9.48;91.99
72262;BME280;60173;52.112;8.648;2023-05-28T00:35:46;101132.44;;;9.39;92.01
72262;BME280;60173;52.112;8.648;2023-05-28T00:38:13;101133.28;;;9.35;92.40
72262;BME280;60173;52.112;8.648;2023-05-28T00:40:43;101128.94;;;9.28;93.13
72262;BME280;60173;52.112;8.648;2023-05-28T00:43:10;101115.13;;;9.35;92.96
72262;BME280;60173;52.112;8.648;2023-05-28T00:45:36;101119.72;;;9.35;92.70
72262;BME280;60173;52.112;8.648;2023-05-28T00:48:02;101111.34;;;9.26;93.11
72262;BME280;60173;52.112;8.648;2023-05-28T00:50:29;101120.00;;;9.18;93.70
72262;BME280;60173;52.112;8.648;2023-05-28T00:52:55;101112.97;;;9.12;94.31
72262;BME280;60173;52.112;8.648;2023-05-28T00:55:22;101112.16;;;9.06;94.74
72262;BME280;60173;52.112;8.648;2023-05-28T00:57:49;101111.88;;;9.02;95.12
72262;BME280;60173;52.112;8.648;2023-05-28T01:00:15;101120.84;;;9.03;95.87
72262;BME280;60173;52.112;8.648;2023-05-28T01:02:42;101116.47;;;9.02;96.06
72262;BME280;60173;52.112;8.648;2023-05-28T01:05:08;101115.41;;;8.98;96.06
72262;BME280;60173;52.112;8.648;2023-05-28T01:07:35;101109.72;;;8.94;95.98
72262;BME280;60173;52.112;8.648;2023-05-28T01:10:02;101111.34;;;8.95;96.21
72262;BME280;60173;52.112;8.648;2023-05-28T01:12:29;101111.88;;;8.92;96.00
72262;BME280;60173;52.112;8.648;2023-05-28T01:14:56;101122.72;;;8.92;95.64
72262;BME280;60173;52.112;8.648;2023-05-28T01:17:23;101117.28;;;8.87;95.88
72262;BME280;60173;52.112;8.648;2023-05-28T01:19:50;101121.34;;;8.85;96.00
72262;BME280;60173;52.112;8.648;2023-05-28T01:22:18;101115.66;;;8.81;95.98
72262;BME280;60173;52.112;8.648;2023-05-28T01:24:44;101109.19;;;8.77;96.19
72262;BME280;60173;52.112;8.648;2023-05-28T01:27:12;101108.06;;;8.73;96.59
72262;BME280;60173;52.112;8.648;2023-05-28T01:29:39;101110.53;;;8.69;97.06
72262;BME280;60173;52.112;8.648;2023-05-28T01:32:05;101111.88;;;8.72;97.14
72262;BME280;60173;52.112;8.648;2023-05-28T01:34:31;101106.44;;;8.67;96.97
72262;BME280;60173;52.112;8.648;2023-05-28T01:37:01;101100.47;;;8.65;97.11
72262;BME280;60173;52.112;8.648;2023-05-28T01:39:34;101098.31;;;8.62;96.97
72262;BME280;60173;52.112;8.648;2023-05-28T01:42:02;101098.34;;;8.72;96.71
72262;BME280;60173;52.112;8.648;2023-05-28T01:44:30;101098.03;;;8.58;96.70
72262;BME280;60173;52.112;8.648;2023-05-28T01:46:57;101096.16;;;8.53;96.98
72262;BME280;60173;52.112;8.648;2023-05-28T01:49:24;101096.97;;;8.49;97.44
72262;BME280;60173;52.112;8.648;2023-05-28T01:51:50;101099.91;;;8.47;98.17
72262;BME280;60173;52.112;8.648;2023-05-28T01:54:17;101093.97;;;8.45;98.27
72262;BME280;60173;52.112;8.648;2023-05-28T01:56:44;101091.81;;;8.42;98.20
72262;BME280;60173;52.112;8.648;2023-05-28T01:59:10;101095.28;;;8.37;98.44
72262;BME280;60173;52.112;8.648;2023-05-28T02:01:36;101100.38;;;8.24;98.70
72262;BME280;60173;52.112;8.648;2023-05-28T02:04:03;101092.22;;;8.19;99.83
72262;BME280;60173;52.112;8.648;2023-05-28T02:06:33;101100.09;;;8.20;100.00
72262;BME280;60173;52.112;8.648;2023-05-28T02:09:00;101092.81;;;8.26;100.00
72262;BME280;60173;52.112;8.648;2023-05-28T02:11:26;101103.34;;;8.17;99.37
72262;BME280;60173;52.112;8.648;2023-05-28T02:13:53;101099.78;;;8.06;99.53
72262;BME280;60173;52.112;8.648;2023-05-28T02:16:19;101098.94;;;7.96;100.00
72262;BME280;60173;52.112;8.648;2023-05-28T02:18:46;101092.78;;;8.10;100.00
72262;BME280;60173;52.112;8.648;2023-05-28T02:21:13;101094.94;;;8.08;100.00
72262;BME280;60173;52.112;8.648;2023-05-28T02:23:44;101105.19;;;8.06;100.00
72262;BME280;60173;52.112;8.648;2023-05-28T02:26:11;101106.31;;;8.10;100.00
72262;BME280;60173;52.112;8.648;2023-05-28T02:28:37;101103.03;;;8.08;100.00
72262;BME280;60173;52.112;8.648;2023-05-28T02:31:04;101098.69;;;8.02;99.84
72262;BME280;60173;52.112;8.648;2023-05-28T02:33:30;101105.19;;;8.06;99.82
72262;BME280;60173;52.112;8.648;2023-05-28T02:35:56;101103.56;;;8.05;99.76
72262;BME280;60173;52.112;8.648;2023-05-28T02:38:23;101099.75;;;7.96;99.83
72262;BME280;60173;52.112;8.648;2023-05-28T02:40:49;101100.84;;;8.00;99.92
72262;BME280;60173;52.112;8.648;2023-05-28T02:43:15;101104.09;;;7.97;99.89
72262;BME280;60173;52.112;8.648;2023-05-28T02:45:42;101096.50;;;7.94;100.00
72262;BME280;60173;52.112;8.648;2023-05-28T02:48:08;101097.31;;;7.95;99.77
72262;BME280;60173;52.112;8.648;2023-05-28T02:50:35;101091.66;;;7.96;99.44
72262;BME280;60173;52.112;8.648;2023-05-28T02:53:02;101101.44;;;8.07;98.69
72262;BME280;60173;52.112;8.648;2023-05-28T02:55:29;101087.84;;;7.97;99.22
72262;BME280;60173;52.112;8.648;2023-05-28T02:57:55;101090.81;;;7.90;99.50
72262;BME280;60173;52.112;8.648;2023-05-28T03:00:21;101089.69;;;7.86;99.73
72262;BME280;60173;52.112;8.648;2023-05-28T03:02:48;101086.69;;;7.73;99.68
72262;BME280;60173;52.112;8.648;2023-05-28T03:05:14;101096.34;;;7.63;100.00
72262;BME280;60173;52.112;8.648;2023-05-28T03:07:41;101098.53;;;7.61;100.00
72262;BME280;60173;52.112;8.648;2023-05-28T03:10:07;101096.56;;;7.46;100.00
72262;BME280;60173;52.112;8.648;2023-05-28T03:12:34;101100.50;;;7.34;100.00
72262;BME280;60173;52.112;8.648;2023-05-28T03:15:00;101105.09;;;7.33;100.00
72262;BME280;60173;52.112;8.648;2023-05-28T03:17:27;101100.94;;;7.15;100.00
72262;BME280;60173;52.112;8.648;2023-05-28T03:19:53;101108.53;;;7.18;100.00
72262;BME280;60173;52.112;8.648;2023-05-28T03:22:20;101111.19;;;7.13;100.00
72262;BME280;60173;52.112;8.648;2023-05-28T03:24:46;101106.84;;;7.12;100.00
72262;BME280;60173;52.112;8.648;2023-05-28T03:27:13;101103.88;;;7.14;100.00
72262;BME280;60173;52.112;8.648;2023-05-28T03:29:39;101104.13;;;7.07;100.00
72262;BME280;60173;52.112;8.648;2023-05-28T03:32:05;101100.94;;;7.15;100.00
72262;BME280;60173;52.112;8.648;2023-05-28T03:34:32;101095.06;;;7.23;100.00
72262;BME280;60173;52.112;8.648;2023-05-28T03:36:59;101088.28;;;7.21;100.00
72262;BME280;60173;52.112;8.648;2023-05-28T03:39:25;101097.22;;;7.27;100.00
72262;BME280;60173;52.112;8.648;2023-05-28T03:41:51;101095.66;;;7.36;100.00
72262;BME280;60173;52.112;8.648;2023-05-28T03:44:18;101102.16;;;7.40;100.00
72262;BME280;60173;52.112;8.648;2023-05-28T03:46:44;101089.78;;;7.44;100.00
72262;BME280;60173;52.112;8.648;2023-05-28T03:49:10;101089.28;;;7.52;100.00
72262;BME280;60173;52.112;8.648;2023-05-28T03:51:37;101094.97;;;7.56;100.00
72262;BME280;60173;52.112;8.648;2023-05-28T03:54:03;101102.84;;;7.62;100.00
72262;BME280;60173;52.112;8.648;2023-05-28T03:56:30;101102.31;;;7.65;100.00
72262;BME280;60173;52.112;8.648;2023-05-28T03:58:56;101103.97;;;7.72;100.00
72262;BME280;60173;52.112;8.648;2023-05-28T04:01:22;101105.88;;;7.76;100.00
72262;BME280;60173;52.112;8.648;2023-05-28T04:03:49;101109.97;;;7.79;100.00
72262;BME280;60173;52.112;8.648;2023-05-28T04:06:15;101102.41;;;7.86;100.00
72262;BME280;60173;52.112;8.648;2023-05-28T04:08:42;101103.53;;;7.95;100.00
72262;BME280;60173;52.112;8.648;2023-05-28T04:11:08;101098.16;;;8.05;100.00
72262;BME280;60173;52.112;8.648;2023-05-28T04:13:35;101094.94;;;8.13;99.72
72262;BME280;60173;52.112;8.648;2023-05-28T04:16:01;101104.72;;;8.20;99.55
72262;BME280;60173;52.112;8.648;2023-05-28T04:18:27;101102.09;;;8.40;99.19
72262;BME280;60173;52.112;8.648;2023-05-28T04:20:54;101098.03;;;8.53;98.68
72262;BME280;60173;52.112;8.648;2023-05-28T04:23:20;101095.06;;;8.65;98.22
72262;BME280;60173;52.112;8.648;2023-05-28T04:25:47;101100.75;;;8.73;97.95
72262;BME280;60173;52.112;8.648;2023-05-28T04:28:13;101091.84;;;8.83;97.37
72262;BME280;60173;52.112;8.648;2023-05-28T04:30:39;101106.72;;;8.96;96.74
72262;BME280;60173;52.112;8.648;2023-05-28T04:33:06;101099.97;;;9.09;96.65
72262;BME280;60173;52.112;8.648;2023-05-28T04:35:32;101093.97;;;9.22;96.10
72262;BME280;60173;52.112;8.648;2023-05-28T04:37:59;101103.66;;;9.59;95.84
72262;BME280;60173;52.112;8.648;2023-05-28T04:40:25;101104.06;;;9.96;94.49
72262;BME280;60173;52.112;8.648;2023-05-28T04:42:52;101103.75;;;10.13;92.54
72262;BME280;60173;52.112;8.648;2023-05-28T04:45:18;101110.41;;;10.42;91.18
72262;BME280;60173;52.112;8.648;2023-05-28T04:47:45;101108.41;;;10.92;90.24
72262;BME280;60173;52.112;8.648;2023-05-28T04:50:11;101108.41;;;11.50;86.99
72262;BME280;60173;52.112;8.648;2023-05-28T04:52:37;101107.78;;;12.06;83.45
72262;BME280;60173;52.112;8.648;2023-05-28T04:55:04;101108.34;;;12.46;79.97
72262;BME280;60173;52.112;8.648;2023-05-28T04:57:31;101099.50;;;12.54;77.43
72262;BME280;60173;52.112;8.648;2023-05-28T04:59:58;101106.72;;;12.45;76.98
72262;BME280;60173;52.112;8.648;2023-05-28T05:02:25;101095.91;;;12.21;78.58
72262;BME280;60173;52.112;8.648;2023-05-28T05:04:51;101097.41;;;12.08;79.56
72262;BME280;60173;52.112;8.648;2023-05-28T05:07:18;101098.06;;;12.00;79.91
72262;BME280;60173;52.112;8.648;2023-05-28T05:09:44;101098.44;;;11.93;80.98
72262;BME280;60173;52.112;8.648;2023-05-28T05:12:10;101112.78;;;11.75;80.67
72262;BME280;60173;52.112;8.648;2023-05-28T05:14:37;101107.63;;;11.49;82.03
72262;BME280;60173;52.112;8.648;2023-05-28T05:17:03;101116.03;;;11.48;83.11
72262;BME280;60173;52.112;8.648;2023-05-28T05:19:30;101114.78;;;11.64;82.72
72262;BME280;60173;52.112;8.648;2023-05-28T05:21:56;101122.66;;;11.95;82.03
72262;BME280;60173;52.112;8.648;2023-05-28T05:24:23;101117.09;;;12.24;81.20
72262;BME280;60173;52.112;8.648;2023-05-28T05:26:49;101122.34;;;12.58;79.76
72262;BME280;60173;52.112;8.648;2023-05-28T05:29:16;101125.88;;;13.10;77.71
72262;BME280;60173;52.112;8.648;2023-05-28T05:31:42;101115.25;;;13.42;75.93
72262;BME280;60173;52.112;8.648;2023-05-28T05:34:08;101113.94;;;13.39;75.51
72262;BME280;60173;52.112;8.648;2023-05-28T05:36:35;101113.66;;;13.22;76.14
72262;BME280;60173;52.112;8.648;2023-05-28T05:39:02;101112.72;;;13.31;76.32
72262;BME280;60173;52.112;8.648;2023-05-28T05:41:28;101112.53;;;13.55;75.83
72262;BME280;60173;52.112;8.648;2023-05-28T05:43:54;101115.19;;;13.61;75.76
72262;BME280;60173;52.112;8.648;2023-05-28T05:46:21;101111.63;;;13.46;75.93
72262;BME280;60173;52.112;8.648;2023-05-28T05:48:47;101112.75;;;13.45;76.33
72262;BME280;60173;52.112;8.648;2023-05-28T05:51:14;101108.50;;;13.67;76.31
72262;BME280;60173;52.112;8.648;2023-05-28T05:53:40;101113.38;;;13.97;75.09
72262;BME280;60173;52.112;8.648;2023-05-28T05:56:07;101107.22;;;14.42;73.95
72262;BME280;60173;52.112;8.648;2023-05-28T05:58:34;101109.56;;;14.71;73.06
72262;BME280;60173;52.112;8.648;2023-05-28T06:01:00;101114.72;;;14.95;70.74
72262;BME280;60173;52.112;8.648;2023-05-28T06:03:27;101118.16;;;15.01;69.66
72262;BME280;60173;52.112;8.648;2023-05-28T06:05:53;101120.59;;;15.02;70.58
72262;BME280;60173;52.112;8.648;2023-05-28T06:08:20;101114.44;;;14.97;69.19
72262;BME280;60173;52.112;8.648;2023-05-28T06:10:46;101111.19;;;14.95;69.43
72262;BME280;60173;52.112;8.648;2023-05-28T06:13:14;101116.03;;;14.98;69.76
72262;BME280;60173;52.112;8.648;2023-05-28T06:15:40;101126.22;;;15.06;70.01
72262;BME280;60173;52.112;8.648;2023-05-28T06:18:08;101121.31;;;14.94;70.38
72262;BME280;60173;52.112;8.648;2023-05-28T06:20:35;101118.78;;;14.98;70.94
72262;BME280;60173;52.112;8.648;2023-05-28T06:23:01;101109.63;;;15.02;70.83
72262;BME280;60173;52.112;8.648;2023-05-28T06:25:28;101109.88;;;15.14;69.75
72262;BME280;60173;52.112;8.648;2023-05-28T06:27:54;101112.75;;;15.41;69.48
72262;BME280;60173;52.112;8.648;2023-05-28T06:30:20;101108.91;;;15.81;68.04
72262;BME280;60173;52.112;8.648;2023-05-28T06:32:47;101104.03;;;16.36;66.09
72262;BME280;60173;52.112;8.648;2023-05-28T06:35:13;101101.28;;;16.70;64.48
72262;BME280;60173;52.112;8.648;2023-05-28T06:37:40;101107.75;;;16.92;63.60
72262;BME280;60173;52.112;8.648;2023-05-28T06:40:08;101103.09;;;16.75;64.69
72262;BME280;60173;52.112;8.648;2023-05-28T06:42:34;101100.97;;;16.63;65.62
72262;BME280;60173;52.112;8.648;2023-05-28T06:45:01;101099.22;;;16.41;65.58
72262;BME280;60173;52.112;8.648;2023-05-28T06:47:27;101099.84;;;16.30;66.78
72262;BME280;60173;52.112;8.648;2023-05-28T06:49:54;101108.22;;;16.24;67.95
72262;BME280;60173;52.112;8.648;2023-05-28T06:52:21;101104.38;;;15.68;68.72
72262;BME280;60173;52.112;8.648;2023-05-28T06:54:47;101107.19;;;15.94;69.39
72262;BME280;60173;52.112;8.648;2023-05-28T06:57:13;101112.66;;;15.86;69.39
72262;BME280;60173;52.112;8.648;2023-05-28T06:59:40;101106.91;;;16.22;69.54
72262;BME280;60173;52.112;8.648;2023-05-28T07:02:06;101105.97;;;16.44;69.48
72262;BME280;60173;52.112;8.648;2023-05-28T07:04:33;101112.91;;;16.50;68.49
72262;BME280;60173;52.112;8.648;2023-05-28T07:06:59;101108.09;;;16.64;68.05
72262;BME280;60173;52.112;8.648;2023-05-28T07:09:26;101117.28;;;16.77;68.37
72262;BME280;60173;52.112;8.648;2023-05-28T07:11:52;101117.91;;;17.09;66.75
72262;BME280;60173;52.112;8.648;2023-05-28T07:14:18;101116.28;;;17.16;65.22
72262;BME280;60173;52.112;8.648;2023-05-28T07:16:45;101117.47;;;17.54;62.75
72262;BME280;60173;52.112;8.648;2023-05-28T07:19:11;101112.78;;;17.54;62.07
72262;BME280;60173;52.112;8.648;2023-05-28T07:21:38;101119.59;;;17.87;62.55
72262;BME280;60173;52.112;8.648;2023-05-28T07:24:04;101118.84;;;17.69;62.15
72262;BME280;60173;52.112;8.648;2023-05-28T07:26:31;101126.94;;;17.09;62.07
72262;BME280;60173;52.112;8.648;2023-05-28T07:28:58;101115.47;;;17.25;62.00
72262;BME280;60173;52.112;8.648;2023-05-28T07:31:24;101114.00;;;18.04;61.70
72262;BME280;60173;52.112;8.648;2023-05-28T07:33:51;101121.75;;;18.52;60.23
72262;BME280;60173;52.112;8.648;2023-05-28T07:36:17;101112.66;;;18.61;57.63
72262;BME280;60173;52.112;8.648;2023-05-28T07:38:43;101112.97;;;18.80;58.14
72262;BME280;60173;52.112;8.648;2023-05-28T07:41:10;101110.97;;;18.89;57.18
72262;BME280;60173;52.112;8.648;2023-05-28T07:43:36;101114.59;;;18.60;56.54
72262;BME280;60173;52.112;8.648;2023-05-28T07:46:02;101109.66;;;18.66;56.78
72262;BME280;60173;52.112;8.648;2023-05-28T07:48:29;101104.84;;;19.17;57.05
72262;BME280;60173;52.112;8.648;2023-05-28T07:50:55;101104.06;;;19.41;54.90
72262;BME280;60173;52.112;8.648;2023-05-28T07:53:22;101099.19;;;19.59;53.88
72262;BME280;60173;52.112;8.648;2023-05-28T07:55:48;101105.88;;;19.70;53.30
72262;BME280;60173;52.112;8.648;2023-05-28T07:58:14;101101.47;;;19.57;53.03
72262;BME280;60173;52.112;8.648;2023-05-28T08:00:41;101103.97;;;19.37;52.05
72262;BME280;60173;52.112;8.648;2023-05-28T08:03:07;101095.47;;;19.42;51.80
72262;BME280;60173;52.112;8.648;2023-05-28T08:05:34;101096.47;;;19.26;51.38
72262;BME280;60173;52.112;8.648;2023-05-28T08:08:00;101089.28;;;19.58;49.05
72262;BME280;60173;52.112;8.648;2023-05-28T08:10:26;101088.19;;;19.83;47.92
72262;BME280;60173;52.112;8.648;2023-05-28T08:12:53;101087.91;;;20.25;47.21
72262;BME280;60173;52.112;8.648;2023-05-28T08:15:19;101081.72;;;20.04;45.58
72262;BME280;60173;52.112;8.648;2023-05-28T08:17:45;101083.44;;;20.08;44.63
72262;BME280;60173;52.112;8.648;2023-05-28T08:20:12;101083.50;;;20.24;44.20
72262;BME280;60173;52.112;8.648;2023-05-28T08:22:38;101087.81;;;20.09;43.08
72262;BME280;60173;52.112;8.648;2023-05-28T08:25:05;101085.97;;;20.14;44.13
72262;BME280;60173;52.112;8.648;2023-05-28T08:27:31;101083.00;;;20.47;44.33
72262;BME280;60173;52.112;8.648;2023-05-28T08:29:58;101083.19;;;20.26;44.43
72262;BME280;60173;52.112;8.648;2023-05-28T08:32:24;101073.94;;;19.94;41.39
72262;BME280;60173;52.112;8.648;2023-05-28T08:34:50;101080.22;;;19.57;41.46
72262;BME280;60173;52.112;8.648;2023-05-28T08:37:17;101078.72;;;19.35;41.94
72262;BME280;60173;52.112;8.648;2023-05-28T08:39:43;101078.97;;;19.67;42.36
72262;BME280;60173;52.112;8.648;2023-05-28T08:42:10;101079.31;;;20.02;42.82
72262;BME280;60173;52.112;8.648;2023-05-28T08:44:36;101082.28;;;20.09;41.82
72262;BME280;60173;52.112;8.648;2023-05-28T08:47:03;101078.41;;;19.86;41.99
72262;BME280;60173;52.112;8.648;2023-05-28T08:49:32;101075.09;;;19.68;42.25
72262;BME280;60173;52.112;8.648;2023-05-28T08:52:04;101073.19;;;20.21;41.69
72262;BME280;60173;52.112;8.648;2023-05-28T08:54:32;101070.25;;;19.90;42.16
72262;BME280;60173;52.112;8.648;2023-05-28T08:56:59;101076.19;;;20.57;43.18
72262;BME280;60173;52.112;8.648;2023-05-28T08:59:26;101067.06;;;20.40;41.06
72262;BME280;60173;52.112;8.648;2023-05-28T09:01:52;101064.06;;;20.33;42.82
72262;BME280;60173;52.112;8.648;2023-05-28T09:04:19;101066.53;;;20.50;42.59
72262;BME280;60173;52.112;8.648;2023-05-28T09:06:45;101069.03;;;20.27;42.46
72262;BME280;60173;52.112;8.648;2023-05-28T09:09:12;101069.22;;;20.47;41.28
72262;BME280;60173;52.112;8.648;2023-05-28T09:11:38;101069.81;;;20.40;41.96
72262;BME280;60173;52.112;8.648;2023-05-28T09:14:13;101069.91;;;20.44;41.26
72262;BME280;60173;52.112;8.648;2023-05-28T09:16:43;101067.84;;;20.97;41.30
72262;BME280;60173;52.112;8.648;2023-05-28T09:19:14;101064.56;;;21.07;42.38
72262;BME280;60173;52.112;8.648;2023-05-28T09:21:54;101068.75;;;20.45;42.45
72262;BME280;60173;52.112;8.648;2023-05-28T09:24:22;101063.22;;;20.45;43.00
72262;BME280;60173;52.112;8.648;2023-05-28T09:26:48;101071.50;;;20.17;43.48
72262;BME280;60173;52.112;8.648;2023-05-28T09:29:15;101056.09;;;20.56;42.36
72262;BME280;60173;52.112;8.648;2023-05-28T09:31:41;101062.31;;;20.00;42.79
72262;BME280;60173;52.112;8.648;2023-05-28T09:34:08;101058.75;;;20.52;44.57
72262;BME280;60173;52.112;8.648;2023-05-28T09:36:35;101057.69;;;20.85;43.04
72262;BME280;60173;52.112;8.648;2023-05-28T09:39:06;101058.97;;;21.19;42.45
72262;BME280;60173;52.112;8.648;2023-05-28T09:41:32;101062.44;;;21.01;41.68
72262;BME280;60173;52.112;8.648;2023-05-28T09:44:00;101058.75;;;20.81;41.96
72262;BME280;60173;52.112;8.648;2023-05-28T09:46:34;101056.00;;;20.96;40.74
72262;BME280;60173;52.112;8.648;2023-05-28T09:49:02;101051.44;;;21.48;42.02
72262;BME280;60173;52.112;8.648;2023-05-28T09:51:31;101046.38;;;22.21;40.71
72262;BME280;60173;52.112;8.648;2023-05-28T09:54:02;101049.53;;;22.03;40.79
72262;BME280;60173;52.112;8.648;2023-05-28T09:56:31;101051.31;;;21.60;40.86
72262;BME280;60173;52.112;8.648;2023-05-28T09:59:02;101046.66;;;21.17;42.21
72262;BME280;60173;52.112;8.648;2023-05-28T10:04:34;101036.78;;;21.32;42.02
72262;BME280;60173;52.112;8.648;2023-05-28T10:07:04;101035.03;;;21.91;41.13
72262;BME280;60173;52.112;8.648;2023-05-28T10:09:35;101039.91;;;21.97;40.98
72262;BME280;60173;52.112;8.648;2023-05-28T10:12:10;101041.63;;;21.51;40.31
72262;BME280;60173;52.112;8.648;2023-05-28T10:14:39;101039.59;;;21.83;39.91
72262;BME280;60173;52.112;8.648;2023-05-28T10:17:08;101038.94;;;21.54;39.39
72262;BME280;60173;52.112;8.648;2023-05-28T10:19:34;101029.69;;;21.47;39.39
72262;BME280;60173;52.112;8.648;2023-05-28T10:22:02;101039.66;;;21.35;40.17
72262;BME280;60173;52.112;8.648;2023-05-28T10:24:29;101033.91;;;20.81;40.01
72262;BME280;60173;52.112;8.648;2023-05-28T10:26:57;101045.91;;;20.72;41.16
72262;BME280;60173;52.112;8.648;2023-05-28T10:29:23;101030.72;;;21.26;40.12
72262;BME280;60173;52.112;8.648;2023-05-28T10:31:59;101032.56;;;20.74;41.64
72262;BME280;60173;52.112;8.648;2023-05-28T10:34:30;101043.81;;;20.97;41.02
72262;BME280;60173;52.112;8.648;2023-05-28T10:36:56;101044.53;;;21.26;40.71
72262;BME280;60173;52.112;8.648;2023-05-28T10:39:43;101051.41;;;21.16;40.89
72262;BME280;60173;52.112;8.648;2023-05-28T10:42:14;101049.19;;;21.06;40.55
72262;BME280;60173;52.112;8.648;2023-05-28T10:45:10;101040.25;;;21.13;41.58
72262;BME280;60173;52.112;8.648;2023-05-28T10:47:40;101046.75;;;21.05;42.37
72262;BME280;60173;52.112;8.648;2023-05-28T10:50:16;101041.88;;;20.70;42.60
72262;BME280;60173;52.112;8.648;2023-05-28T10:53:07;101048.09;;;21.11;43.15
72262;BME280;60173;52.112;8.648;2023-05-28T10:55:53;101044.31;;;21.47;42.49
72262;BME280;60173;52.112;8.648;2023-05-28T10:58:33;101045.06;;;21.79;42.17
72262;BME280;60173;52.112;8.648;2023-05-28T11:03:43;101050.94;;;21.78;42.04
72262;BME280;60173;52.112;8.648;2023-05-28T11:06:11;101054.03;;;21.41;42.66
72262;BME280;60173;52.112;8.648;2023-05-28T11:08:40;101036.75;;;21.79;41.81
72262;BME280;60173;52.112;8.648;2023-05-28T11:11:07;101049.09;;;22.17;42.22
72262;BME280;60173;52.112;8.648;2023-05-28T11:13:34;101045.38;;;21.58;42.09
72262;BME280;60173;52.112;8.648;2023-05-28T11:16:07;101046.34;;;21.50;42.90
72262;BME280;60173;52.112;8.648;2023-05-28T11:18:34;101041.63;;;21.51;42.32
72262;BME280;60173;52.112;8.648;2023-05-28T11:21:08;101047.13;;;21.35;41.78
72262;BME280;60173;52.112;8.648;2023-05-28T11:23:35;101045.69;;;21.25;43.90
72262;BME280;60173;52.112;8.648;2023-05-28T11:26:03;101054.97;;;21.17;43.68
72262;BME280;60173;52.112;8.648;2023-05-28T11:28:47;101044.28;;;21.63;43.58
72262;BME280;60173;52.112;8.648;2023-05-28T11:31:13;101035.94;;;22.14;42.20
72262;BME280;60173;52.112;8.648;2023-05-28T11:33:40;101043.88;;;21.80;42.61
72262;BME280;60173;52.112;8.648;2023-05-28T11:36:06;101046.69;;;21.64;42.60
72262;BME280;60173;52.112;8.648;2023-05-28T11:38:33;101047.41;;;21.61;43.97
72262;BME280;60173;52.112;8.648;2023-05-28T11:41:00;101036.50;;;21.69;43.82
72262;BME280;60173;52.112;8.648;2023-05-28T11:43:27;101038.50;;;21.36;45.31
72262;BME280;60173;52.112;8.648;2023-05-28T11:45:56;101044.72;;;21.33;43.88
72262;BME280;60173;52.112;8.648;2023-05-28T11:48:24;101039.44;;;20.81;43.56
72262;BME280;60173;52.112;8.648;2023-05-28T11:50:59;101040.34;;;21.01;43.65
72262;BME280;60173;52.112;8.648;2023-05-28T11:53:42;101044.56;;;21.42;42.17
72262;BME280;60173;52.112;8.648;2023-05-28T11:56:10;101046.47;;;21.38;42.25
72262;BME280;60173;52.112;8.648;2023-05-28T11:58:37;101044.66;;;21.46;43.10
72262;BME280;60173;52.112;8.648;2023-05-28T12:01:04;101036.84;;;21.83;42.25
72262;BME280;60173;52.112;8.648;2023-05-28T12:03:31;101037.16;;;21.97;41.55
72262;BME280;60173;52.112;8.648;2023-05-28T12:05:57;101025.69;;;22.15;40.73
72262;BME280;60173;52.112;8.648;2023-05-28T12:08:26;101031.09;;;22.46;40.78
72262;BME280;60173;52.112;8.648;2023-05-28T12:10:59;101024.38;;;22.67;40.32
72262;BME280;60173;52.112;8.648;2023-05-28T12:13:36;101025.00;;;22.37;39.96
72262;BME280;60173;52.112;8.648;2023-05-28T12:16:06;101019.44;;;22.18;39.80
72262;BME280;60173;52.112;8.648;2023-05-28T12:18:33;101015.72;;;22.29;41.45
72262;BME280;60173;52.112;8.648;2023-05-28T12:20:59;101020.75;;;22.43;41.69
72262;BME280;60173;52.112;8.648;2023-05-28T12:23:26;101022.28;;;21.86;42.90
72262;BME280;60173;52.112;8.648;2023-05-28T12:25:52;101012.44;;;22.04;41.47
72262;BME280;60173;52.112;8.648;2023-05-28T12:28:21;101011.75;;;21.25;41.86
72262;BME280;60173;52.112;8.648;2023-05-28T12:30:49;101010.97;;;21.91;42.08
72262;BME280;60173;52.112;8.648;2023-05-28T12:33:16;101017.84;;;22.36;42.11
72262;BME280;60173;52.112;8.648;2023-05-28T12:35:43;101012.13;;;22.09;41.42
72262;BME280;60173;52.112;8.648;2023-05-28T12:38:09;101008.53;;;21.89;39.94
72262;BME280;60173;52.112;8.648;2023-05-28T12:40:35;101004.88;;;22.40;39.54
72262;BME280;60173;52.112;8.648;2023-05-28T12:43:02;101002.81;;;21.63;39.88
72262;BME280;60173;52.112;8.648;2023-05-28T12:45:28;101015.44;;;21.44;39.71
72262;BME280;60173;52.112;8.648;2023-05-28T12:47:55;101013.53;;;21.64;40.33
72262;BME280;60173;52.112;8.648;2023-05-28T12:50:22;101001.84;;;22.45;39.93
72262;BME280;60173;52.112;8.648;2023-05-28T12:52:48;100997.97;;;22.73;39.51
72262;BME280;60173;52.112;8.648;2023-05-28T12:55:14;101000.69;;;22.69;38.18
72262;BME280;60173;52.112;8.648;2023-05-28T12:57:43;100988.63;;;22.58;39.44
72262;BME280;60173;52.112;8.648;2023-05-28T13:00:10;100989.81;;;22.38;39.18